sensor_id;sensor_type;location;lat;lon;timestamp;temperature;humidity
39023;DHT22;25908;51.984;5.928;2023-01-30T00:01:43;6.50;99.90
39023;DHT22;25908;51.984;5.928;2023-01-30T00:04:10;6.40;99.90
39023;DHT22;25908;51.984;5.928;2023-01-30T00:06:41;6.50;99.90
39023;DHT22;25908;51.984;5.928;2023-01-30T00:09:11;6.50;99.90
39023;DHT22;25908;51.984;5.928;2023-01-30T00:11:38;6.40;99.90
39023;DHT22;25908;51.984;5.928;2023-01-30T00:14:03;6.50;99.90
39023;DHT22;25908;51.984;5.928;2023-01-30T00:16:29;6.50;99.90
39023;DHT22;25908;51.984;5.928;2023-01-30T00:18:54;6.50;99.90
39023;DHT22;25908;51.984;5.928;2023-01-30T00:21:20;6.50;99.90
39023;DHT22;25908;51.984;5.928;2023-01-30T00:23:45;6.50;99.90
39023;DHT22;25908;51.984;5.928;2023-01-30T00:26:11;6.40;99.90
39023;DHT22;25908;51.984;5.928;2023-01-30T00:28:37;6.40;99.90
39023;DHT22;25908;51.984;5.928;2023-01-30T00:31:04;6.40;99.90
39023;DHT22;25908;51.984;5.928;2023-01-30T00:33:30;6.40;99.90
39023;DHT22;25908;51.984;5.928;2023-01-30T00:35:56;6.40;99.90
39023;DHT22;25908;51.984;5.928;2023-01-30T00:38:22;6.40;99.90
39023;DHT22;25908;51.984;5.928;2023-01-30T00:40:48;6.50;99.90
39023;DHT22;25908;51.984;5.928;2023-01-30T00:43:18;6.50;99.90
39023;DHT22;25908;51.984;5.928;2023-01-30T00:46:09;6.50;99.90
39023;DHT22;25908;51.984;5.928;2023-01-30T00:48:55;6.50;99.90
39023;DHT22;25908;51.984;5.928;2023-01-30T00:51:21;6.50;99.90
39023;DHT22;25908;51.984;5.928;2023-01-30T00:53:46;6.60;99.90
39023;DHT22;25908;51.984;5.928;2023-01-30T00:56:12;6.60;99.90
39023;DHT22;25908;51.984;5.928;2023-01-30T00:58:37;6.50;99.90
39023;DHT22;25908;51.984;5.928;2023-01-30T01:01:03;6.50;99.90
39023;DHT22;25908;51.984;5.928;2023-01-30T01:03:28;6.50;99.90
39023;DHT22;25908;51.984;5.928;2023-01-30T01:05:54;6.50;99.90
39023;DHT22;25908;51.984;5.928;2023-01-30T01:08:19;6.60;99.90
39023;DHT22;25908;51.984;5.928;2023-01-30T01:10:47;6.60;99.90
39023;DHT22;25908;51.984;5.928;2023-01-30T01:13:12;6.60;99.90
39023;DHT22;25908;51.984;5.928;2023-01-30T01:15:38;6.70;99.90
39023;DHT22;25908;51.984;5.928;2023-01-30T01:18:04;6.70;99.90
39023;DHT22;25908;51.984;5.928;2023-01-30T01:20:29;6.70;99.90
39023;DHT22;25908;51.984;5.928;2023-01-30T01:22:55;6.80;99.90
39023;DHT22;25908;51.984;5.928;2023-01-30T01:25:22;6.80;99.90
39023;DHT22;25908;51.984;5.928;2023-01-30T01:27:48;6.80;99.90
39023;DHT22;25908;51.984;5.928;2023-01-30T01:30:14;6.80;99.90
39023;DHT22;25908;51.984;5.928;2023-01-30T01:32:40;6.80;99.90
39023;DHT22;25908;51.984;5.928;2023-01-30T01:35:06;6.90;99.90
39023;DHT22;25908;51.984;5.928;2023-01-30T01:37:31;6.90;99.90
39023;DHT22;25908;51.984;5.928;2023-01-30T01:39:57;6.90;99.90
39023;DHT22;25908;51.984;5.928;2023-01-30T01:42:41;6.90;99.90
39023;DHT22;25908;51.984;5.928;2023-01-30T01:45:23;6.80;99.90
39023;DHT22;25908;51.984;5.928;2023-01-30T01:48:08;6.90;99.90
39023;DHT22;25908;51.984;5.928;2023-01-30T01:50:46;6.90;99.90
39023;DHT22;25908;51.984;5.928;2023-01-30T01:53:14;6.90;99.90
39023;DHT22;25908;51.984;5.928;2023-01-30T01:55:42;6.90;99.90
39023;DHT22;25908;51.984;5.928;2023-01-30T01:58:13;6.80;99.90
39023;DHT22;25908;51.984;5.928;2023-01-30T02:00:40;6.80;99.90
39023;DHT22;25908;51.984;5.928;2023-01-30T02:03:12;6.80;99.90
39023;DHT22;25908;51.984;5.928;2023-01-30T02:05:43;6.90;99.90
39023;DHT22;25908;51.984;5.928;2023-01-30T02:08:16;6.90;99.90
39023;DHT22;25908;51.984;5.928;2023-01-30T02:11:00;6.90;99.90
39023;DHT22;25908;51.984;5.928;2023-01-30T02:13:27;6.90;99.90
39023;DHT22;25908;51.984;5.928;2023-01-30T02:15:56;6.90;99.90
39023;DHT22;25908;51.984;5.928;2023-01-30T02:18:22;6.90;99.90
39023;DHT22;25908;51.984;5.928;2023-01-30T02:35:04;7.10;99.90
39023;DHT22;25908;51.984;5.928;2023-01-30T02:43:35;7.00;99.90
39023;DHT22;25908;51.984;5.928;2023-01-30T02:49:02;7.10;99.90
39023;DHT22;25908;51.984;5.928;2023-01-30T02:51:36;7.10;99.90
39023;DHT22;25908;51.984;5.928;2023-01-30T02:54:04;7.10;99.90
39023;DHT22;25908;51.984;5.928;2023-01-30T02:56:46;7.20;99.90
39023;DHT22;25908;51.984;5.928;2023-01-30T02:59:13;7.20;99.90
39023;DHT22;25908;51.984;5.928;2023-01-30T03:04:47;7.30;99.90
39023;DHT22;25908;51.984;5.928;2023-01-30T03:07:26;7.20;99.90
39023;DHT22;25908;51.984;5.928;2023-01-30T03:15:04;7.40;99.90
39023;DHT22;25908;51.984;5.928;2023-01-30T03:17:34;7.50;99.90
39023;DHT22;25908;51.984;5.928;2023-01-30T03:20:01;7.40;99.90
39023;DHT22;25908;51.984;5.928;2023-01-30T03:22:26;7.50;99.90
39023;DHT22;25908;51.984;5.928;2023-01-30T03:24:52;7.40;99.90
39023;DHT22;25908;51.984;5.928;2023-01-30T03:27:19;7.50;99.90
39023;DHT22;25908;51.984;5.928;2023-01-30T03:29:46;7.50;99.90
39023;DHT22;25908;51.984;5.928;2023-01-30T03:32:11;7.50;99.90
39023;DHT22;25908;51.984;5.928;2023-01-30T03:34:37;7.50;99.90
39023;DHT22;25908;51.984;5.928;2023-01-30T03:37:03;7.60;99.90
39023;DHT22;25908;51.984;5.928;2023-01-30T03:39:29;7.50;99.90
39023;DHT22;25908;51.984;5.928;2023-01-30T03:41:55;7.60;99.90
39023;DHT22;25908;51.984;5.928;2023-01-30T03:44:21;7.60;99.90
39023;DHT22;25908;51.984;5.928;2023-01-30T03:46:47;7.60;99.90
39023;DHT22;25908;51.984;5.928;2023-01-30T03:49:12;7.60;99.90
39023;DHT22;25908;51.984;5.928;2023-01-30T03:51:38;7.50;99.90
39023;DHT22;25908;51.984;5.928;2023-01-30T03:54:03;7.50;99.90
39023;DHT22;25908;51.984;5.928;2023-01-30T03:56:29;7.60;99.90
39023;DHT22;25908;51.984;5.928;2023-01-30T03:58:55;7.60;99.90
39023;DHT22;25908;51.984;5.928;2023-01-30T04:01:20;7.60;99.90
39023;DHT22;25908;51.984;5.928;2023-01-30T04:03:46;7.60;99.90
39023;DHT22;25908;51.984;5.928;2023-01-30T04:06:12;7.60;99.90
39023;DHT22;25908;51.984;5.928;2023-01-30T04:08:37;7.60;99.90
39023;DHT22;25908;51.984;5.928;2023-01-30T04:11:03;7.60;99.90
39023;DHT22;25908;51.984;5.928;2023-01-30T04:13:28;7.60;99.90
39023;DHT22;25908;51.984;5.928;2023-01-30T04:16:19;7.60;99.90
39023;DHT22;25908;51.984;5.928;2023-01-30T04:18:45;7.70;99.90
39023;DHT22;25908;51.984;5.928;2023-01-30T04:21:12;7.60;99.90
39023;DHT22;25908;51.984;5.928;2023-01-30T04:23:37;7.60;99.90
39023;DHT22;25908;51.984;5.928;2023-01-30T04:26:04;7.70;99.90
39023;DHT22;25908;51.984;5.928;2023-01-30T04:28:30;7.70;99.90
39023;DHT22;25908;51.984;5.928;2023-01-30T04:30:56;7.70;99.90
39023;DHT22;25908;51.984;5.928;2023-01-30T04:33:22;7.70;99.90
39023;DHT22;25908;51.984;5.928;2023-01-30T04:35:55;7.80;99.90
39023;DHT22;25908;51.984;5.928;2023-01-30T04:38:22;7.80;99.90
39023;DHT22;25908;51.984;5.928;2023-01-30T04:40:51;7.80;99.90
39023;DHT22;25908;51.984;5.928;2023-01-30T04:43:18;7.90;99.90
39023;DHT22;25908;51.984;5.928;2023-01-30T04:45:48;7.90;99.90
39023;DHT22;25908;51.984;5.928;2023-01-30T04:48:15;7.90;99.90
39023;DHT22;25908;51.984;5.928;2023-01-30T04:50:41;7.90;99.90
39023;DHT22;25908;51.984;5.928;2023-01-30T04:53:08;7.90;99.90
39023;DHT22;25908;51.984;5.928;2023-01-30T04:55:33;7.90;99.90
39023;DHT22;25908;51.984;5.928;2023-01-30T04:57:59;7.90;99.90
39023;DHT22;25908;51.984;5.928;2023-01-30T05:00:25;8.00;99.90
39023;DHT22;25908;51.984;5.928;2023-01-30T05:02:51;8.00;99.90
39023;DHT22;25908;51.984;5.928;2023-01-30T05:05:17;8.00;99.90
39023;DHT22;25908;51.984;5.928;2023-01-30T05:07:43;8.00;99.90
39023;DHT22;25908;51.984;5.928;2023-01-30T05:10:09;8.10;99.90
39023;DHT22;25908;51.984;5.928;2023-01-30T05:12:35;8.10;99.90
39023;DHT22;25908;51.984;5.928;2023-01-30T05:15:01;8.10;99.90
39023;DHT22;25908;51.984;5.928;2023-01-30T05:17:26;8.10;99.90
39023;DHT22;25908;51.984;5.928;2023-01-30T05:19:52;8.10;99.90
39023;DHT22;25908;51.984;5.928;2023-01-30T05:22:17;8.10;99.90
39023;DHT22;25908;51.984;5.928;2023-01-30T05:24:43;8.20;99.90
39023;DHT22;25908;51.984;5.928;2023-01-30T05:27:08;8.20;99.90
39023;DHT22;25908;51.984;5.928;2023-01-30T05:29:34;8.20;99.90
39023;DHT22;25908;51.984;5.928;2023-01-30T05:31:59;8.20;99.90
39023;DHT22;25908;51.984;5.928;2023-01-30T05:34:25;8.20;99.90
39023;DHT22;25908;51.984;5.928;2023-01-30T05:36:51;8.20;99.90
39023;DHT22;25908;51.984;5.928;2023-01-30T05:39:18;8.20;99.90
39023;DHT22;25908;51.984;5.928;2023-01-30T05:41:43;8.20;99.90
39023;DHT22;25908;51.984;5.928;2023-01-30T05:44:09;8.20;99.90
39023;DHT22;25908;51.984;5.928;2023-01-30T05:46:34;8.30;99.90
39023;DHT22;25908;51.984;5.928;2023-01-30T05:49:00;8.30;99.90
39023;DHT22;25908;51.984;5.928;2023-01-30T05:51:28;8.30;99.90
39023;DHT22;25908;51.984;5.928;2023-01-30T05:53:54;8.30;99.90
39023;DHT22;25908;51.984;5.928;2023-01-30T05:56:20;8.30;99.90
39023;DHT22;25908;51.984;5.928;2023-01-30T05:58:53;8.30;99.90
39023;DHT22;25908;51.984;5.928;2023-01-30T06:01:19;8.30;99.90
39023;DHT22;25908;51.984;5.928;2023-01-30T06:03:45;8.30;99.90
39023;DHT22;25908;51.984;5.928;2023-01-30T06:06:11;8.30;99.90
39023;DHT22;25908;51.984;5.928;2023-01-30T06:08:37;8.30;99.90
39023;DHT22;25908;51.984;5.928;2023-01-30T06:11:09;8.30;99.90
39023;DHT22;25908;51.984;5.928;2023-01-30T06:13:35;8.30;99.90
39023;DHT22;25908;51.984;5.928;2023-01-30T06:16:00;8.30;99.90
39023;DHT22;25908;51.984;5.928;2023-01-30T06:18:27;8.20;99.90
39023;DHT22;25908;51.984;5.928;2023-01-30T06:20:53;8.20;99.90
39023;DHT22;25908;51.984;5.928;2023-01-30T06:23:20;8.20;99.90
39023;DHT22;25908;51.984;5.928;2023-01-30T06:25:47;8.10;99.90
39023;DHT22;25908;51.984;5.928;2023-01-30T06:28:14;8.10;99.90
39023;DHT22;25908;51.984;5.928;2023-01-30T06:30:40;8.00;99.90
39023;DHT22;25908;51.984;5.928;2023-01-30T06:33:06;8.00;99.90
39023;DHT22;25908;51.984;5.928;2023-01-30T06:35:32;8.00;99.90
39023;DHT22;25908;51.984;5.928;2023-01-30T06:37:58;8.00;99.90
39023;DHT22;25908;51.984;5.928;2023-01-30T06:40:23;8.00;99.90
39023;DHT22;25908;51.984;5.928;2023-01-30T06:42:49;8.00;99.90
39023;DHT22;25908;51.984;5.928;2023-01-30T06:45:17;8.00;99.90
39023;DHT22;25908;51.984;5.928;2023-01-30T06:47:50;8.00;99.90
39023;DHT22;25908;51.984;5.928;2023-01-30T06:50:18;8.00;99.90
39023;DHT22;25908;51.984;5.928;2023-01-30T06:52:46;7.90;99.90
39023;DHT22;25908;51.984;5.928;2023-01-30T06:55:14;7.90;99.90
39023;DHT22;25908;51.984;5.928;2023-01-30T06:57:41;7.90;99.90
39023;DHT22;25908;51.984;5.928;2023-01-30T07:00:09;7.90;99.90
39023;DHT22;25908;51.984;5.928;2023-01-30T07:02:35;7.80;99.90
39023;DHT22;25908;51.984;5.928;2023-01-30T07:05:02;7.80;99.90
39023;DHT22;25908;51.984;5.928;2023-01-30T07:07:29;7.80;99.90
39023;DHT22;25908;51.984;5.928;2023-01-30T07:09:55;7.80;99.90
39023;DHT22;25908;51.984;5.928;2023-01-30T07:12:21;7.70;99.90
39023;DHT22;25908;51.984;5.928;2023-01-30T07:14:46;7.70;99.90
39023;DHT22;25908;51.984;5.928;2023-01-30T07:17:12;7.70;99.90
39023;DHT22;25908;51.984;5.928;2023-01-30T07:19:39;7.70;99.90
39023;DHT22;25908;51.984;5.928;2023-01-30T07:22:04;7.70;99.90
39023;DHT22;25908;51.984;5.928;2023-01-30T07:24:30;7.60;99.90
39023;DHT22;25908;51.984;5.928;2023-01-30T07:26:56;7.60;99.90
39023;DHT22;25908;51.984;5.928;2023-01-30T07:29:21;7.60;99.90
39023;DHT22;25908;51.984;5.928;2023-01-30T07:31:47;7.60;99.90
39023;DHT22;25908;51.984;5.928;2023-01-30T07:34:12;7.60;99.90
39023;DHT22;25908;51.984;5.928;2023-01-30T07:36:38;7.60;99.90
39023;DHT22;25908;51.984;5.928;2023-01-30T07:39:04;7.50;99.90
39023;DHT22;25908;51.984;5.928;2023-01-30T07:41:30;7.50;99.90
39023;DHT22;25908;51.984;5.928;2023-01-30T07:43:55;7.50;99.90
39023;DHT22;25908;51.984;5.928;2023-01-30T07:46:21;7.50;99.90
39023;DHT22;25908;51.984;5.928;2023-01-30T07:48:47;7.50;99.90
39023;DHT22;25908;51.984;5.928;2023-01-30T07:51:12;7.50;99.90
39023;DHT22;25908;51.984;5.928;2023-01-30T07:53:38;7.50;99.90
39023;DHT22;25908;51.984;5.928;2023-01-30T07:56:11;7.50;99.90
39023;DHT22;25908;51.984;5.928;2023-01-30T07:58:38;7.50;99.90
39023;DHT22;25908;51.984;5.928;2023-01-30T08:01:04;7.50;99.90
39023;DHT22;25908;51.984;5.928;2023-01-30T08:03:30;7.50;99.90
39023;DHT22;25908;51.984;5.928;2023-01-30T08:05:55;7.50;99.90
39023;DHT22;25908;51.984;5.928;2023-01-30T08:08:21;7.50;99.90
39023;DHT22;25908;51.984;5.928;2023-01-30T08:10:50;7.50;99.90
39023;DHT22;25908;51.984;5.928;2023-01-30T08:13:15;7.50;99.90
39023;DHT22;25908;51.984;5.928;2023-01-30T08:15:41;7.50;99.90
39023;DHT22;25908;51.984;5.928;2023-01-30T08:18:06;7.50;99.90
39023;DHT22;25908;51.984;5.928;2023-01-30T08:20:32;7.50;99.90
39023;DHT22;25908;51.984;5.928;2023-01-30T08:22:58;7.60;99.90
39023;DHT22;25908;51.984;5.928;2023-01-30T08:25:25;7.60;99.90
39023;DHT22;25908;51.984;5.928;2023-01-30T08:27:50;7.60;99.90
39023;DHT22;25908;51.984;5.928;2023-01-30T08:30:17;7.60;99.90
39023;DHT22;25908;51.984;5.928;2023-01-30T08:32:43;7.60;99.90
39023;DHT22;25908;51.984;5.928;2023-01-30T08:35:09;7.60;99.90
39023;DHT22;25908;51.984;5.928;2023-01-30T08:37:35;7.60;99.90
39023;DHT22;25908;51.984;5.928;2023-01-30T08:40:01;7.60;99.90
39023;DHT22;25908;51.984;5.928;2023-01-30T08:42:26;7.70;99.90
39023;DHT22;25908;51.984;5.928;2023-01-30T08:44:52;7.80;99.90
39023;DHT22;25908;51.984;5.928;2023-01-30T08:47:17;7.90;99.90
39023;DHT22;25908;51.984;5.928;2023-01-30T08:49:43;8.00;99.90
39023;DHT22;25908;51.984;5.928;2023-01-30T08:52:09;8.10;99.90
39023;DHT22;25908;51.984;5.928;2023-01-30T08:54:34;8.20;99.90
39023;DHT22;25908;51.984;5.928;2023-01-30T08:57:00;8.30;99.90
39023;DHT22;25908;51.984;5.928;2023-01-30T08:59:25;8.40;99.90
39023;DHT22;25908;51.984;5.928;2023-01-30T09:01:51;8.50;99.90
39023;DHT22;25908;51.984;5.928;2023-01-30T09:04:17;8.70;99.90
39023;DHT22;25908;51.984;5.928;2023-01-30T09:06:42;8.90;99.90
39023;DHT22;25908;51.984;5.928;2023-01-30T09:09:08;9.10;99.90
39023;DHT22;25908;51.984;5.928;2023-01-30T09:11:33;9.20;99.90
39023;DHT22;25908;51.984;5.928;2023-01-30T09:13:59;9.30;99.90
39023;DHT22;25908;51.984;5.928;2023-01-30T09:16:24;9.30;99.90
39023;DHT22;25908;51.984;5.928;2023-01-30T09:18:50;9.20;99.90
39023;DHT22;25908;51.984;5.928;2023-01-30T09:21:15;9.10;99.90
39023;DHT22;25908;51.984;5.928;2023-01-30T09:23:41;9.00;99.90
39023;DHT22;25908;51.984;5.928;2023-01-30T09:26:07;8.90;99.90
39023;DHT22;25908;51.984;5.928;2023-01-30T09:28:32;8.90;99.90
39023;DHT22;25908;51.984;5.928;2023-01-30T09:30:59;8.80;99.90
39023;DHT22;25908;51.984;5.928;2023-01-30T09:33:26;8.70;99.90
39023;DHT22;25908;51.984;5.928;2023-01-30T09:35:52;8.70;99.90
39023;DHT22;25908;51.984;5.928;2023-01-30T09:38:17;8.70;99.90
39023;DHT22;25908;51.984;5.928;2023-01-30T09:46:13;8.70;99.90
39023;DHT22;25908;51.984;5.928;2023-01-30T09:48:43;8.60;99.90
39023;DHT22;25908;51.984;5.928;2023-01-30T09:51:34;8.60;99.90
39023;DHT22;25908;51.984;5.928;2023-01-30T09:56:31;8.60;99.90
39023;DHT22;25908;51.984;5.928;2023-01-30T09:59:01;8.60;99.90
39023;DHT22;25908;51.984;5.928;2023-01-30T10:01:43;8.60;99.90
39023;DHT22;25908;51.984;5.928;2023-01-30T10:04:20;8.60;99.90
39023;DHT22;25908;51.984;5.928;2023-01-30T10:15:22;8.80;99.90
39023;DHT22;25908;51.984;5.928;2023-01-30T10:20:41;9.00;99.90
39023;DHT22;25908;51.984;5.928;2023-01-30T10:23:15;9.00;99.90
39023;DHT22;25908;51.984;5.928;2023-01-30T10:25:54;9.00;99.90
39023;DHT22;25908;51.984;5.928;2023-01-30T10:28:31;9.00;99.90
39023;DHT22;25908;51.984;5.928;2023-01-30T10:31:09;8.90;99.90
39023;DHT22;25908;51.984;5.928;2023-01-30T10:33:50;8.90;99.90
39023;DHT22;25908;51.984;5.928;2023-01-30T10:36:28;8.80;99.90
39023;DHT22;25908;51.984;5.928;2023-01-30T10:38:58;8.80;99.90
39023;DHT22;25908;51.984;5.928;2023-01-30T10:41:33;8.70;99.90
39023;DHT22;25908;51.984;5.928;2023-01-30T10:44:13;8.80;99.90
39023;DHT22;25908;51.984;5.928;2023-01-30T10:46:46;8.80;99.90
39023;DHT22;25908;51.984;5.928;2023-01-30T10:49:17;8.80;99.90
39023;DHT22;25908;51.984;5.928;2023-01-30T10:51:49;8.80;99.90
39023;DHT22;25908;51.984;5.928;2023-01-30T10:54:24;8.80;99.90
39023;DHT22;25908;51.984;5.928;2023-01-30T10:57:12;8.90;99.90
39023;DHT22;25908;51.984;5.928;2023-01-30T10:59:52;8.90;99.90
39023;DHT22;25908;51.984;5.928;2023-01-30T11:05:23;8.90;99.90
39023;DHT22;25908;51.984;5.928;2023-01-30T11:07:49;9.00;99.90
39023;DHT22;25908;51.984;5.928;2023-01-30T11:10:18;9.00;99.90
39023;DHT22;25908;51.984;5.928;2023-01-30T11:12:44;9.00;99.90
39023;DHT22;25908;51.984;5.928;2023-01-30T11:15:10;9.00;99.90
39023;DHT22;25908;51.984;5.928;2023-01-30T11:17:38;9.00;99.90
39023;DHT22;25908;51.984;5.928;2023-01-30T11:20:15;9.00;99.90
39023;DHT22;25908;51.984;5.928;2023-01-30T11:23:05;9.10;99.90
39023;DHT22;25908;51.984;5.928;2023-01-30T11:25:49;9.10;99.90
39023;DHT22;25908;51.984;5.928;2023-01-30T11:28:15;9.20;99.90
39023;DHT22;25908;51.984;5.928;2023-01-30T11:30:51;9.30;99.90
39023;DHT22;25908;51.984;5.928;2023-01-30T11:33:18;9.40;99.90
39023;DHT22;25908;51.984;5.928;2023-01-30T11:35:56;9.40;99.90
39023;DHT22;25908;51.984;5.928;2023-01-30T11:38:26;9.40;99.90
39023;DHT22;25908;51.984;5.928;2023-01-30T11:41:17;9.40;99.90
39023;DHT22;25908;51.984;5.928;2023-01-30T11:43:44;9.50;99.90
39023;DHT22;25908;51.984;5.928;2023-01-30T11:46:12;9.50;99.90
39023;DHT22;25908;51.984;5.928;2023-01-30T11:48:48;9.50;99.90
39023;DHT22;25908;51.984;5.928;2023-01-30T11:51:15;9.60;99.90
39023;DHT22;25908;51.984;5.928;2023-01-30T11:53:46;9.60;99.20
39023;DHT22;25908;51.984;5.928;2023-01-30T11:58:56;9.50;98.80
39023;DHT22;25908;51.984;5.928;2023-01-30T12:01:30;9.60;98.90
39023;DHT22;25908;51.984;5.928;2023-01-30T12:03:58;9.60;98.50
39023;DHT22;25908;51.984;5.928;2023-01-30T12:06:33;9.60;97.90
39023;DHT22;25908;51.984;5.928;2023-01-30T12:08:59;9.60;98.40
39023;DHT22;25908;51.984;5.928;2023-01-30T12:11:28;9.60;97.80
39023;DHT22;25908;51.984;5.928;2023-01-30T12:14:03;9.60;97.70
39023;DHT22;25908;51.984;5.928;2023-01-30T12:19:32;9.70;97.60
39023;DHT22;25908;51.984;5.928;2023-01-30T12:22:19;9.70;96.70
39023;DHT22;25908;51.984;5.928;2023-01-30T12:24:59;9.70;96.90
39023;DHT22;25908;51.984;5.928;2023-01-30T12:30:23;9.60;97.00
39023;DHT22;25908;51.984;5.928;2023-01-30T12:32:57;9.60;96.90
39023;DHT22;25908;51.984;5.928;2023-01-30T12:35:30;9.60;96.80
39023;DHT22;25908;51.984;5.928;2023-01-30T12:44:04;9.70;97.20
39023;DHT22;25908;51.984;5.928;2023-01-30T12:49:47;9.70;97.50
39023;DHT22;25908;51.984;5.928;2023-01-30T12:54:46;9.70;95.90
39023;DHT22;25908;51.984;5.928;2023-01-30T12:57:38;9.70;95.50
39023;DHT22;25908;51.984;5.928;2023-01-30T13:03:07;9.60;95.80
39023;DHT22;25908;51.984;5.928;2023-01-30T13:14:26;9.70;96.70
39023;DHT22;25908;51.984;5.928;2023-01-30T13:19:44;9.70;96.30
39023;DHT22;25908;51.984;5.928;2023-01-30T13:22:22;9.70;96.40
39023;DHT22;25908;51.984;5.928;2023-01-30T13:24:56;9.70;96.70
39023;DHT22;25908;51.984;5.928;2023-01-30T13:27:24;9.60;96.50
39023;DHT22;25908;51.984;5.928;2023-01-30T13:29:52;9.60;96.40
39023;DHT22;25908;51.984;5.928;2023-01-30T13:32:34;9.60;96.60
39023;DHT22;25908;51.984;5.928;2023-01-30T13:35:12;9.50;96.90
39023;DHT22;25908;51.984;5.928;2023-01-30T13:37:39;9.50;97.20
39023;DHT22;25908;51.984;5.928;2023-01-30T13:40:31;9.50;97.10
39023;DHT22;25908;51.984;5.928;2023-01-30T13:43:02;9.50;97.00
39023;DHT22;25908;51.984;5.928;2023-01-30T13:45:33;9.50;96.90
39023;DHT22;25908;51.984;5.928;2023-01-30T13:56:40;9.40;97.30
39023;DHT22;25908;51.984;5.928;2023-01-30T13:59:14;9.40;97.60
39023;DHT22;25908;51.984;5.928;2023-01-30T14:04:47;9.50;97.40
39023;DHT22;25908;51.984;5.928;2023-01-30T14:12:47;9.50;97.60
39023;DHT22;25908;51.984;5.928;2023-01-30T14:18:02;9.50;97.90
39023;DHT22;25908;51.984;5.928;2023-01-30T14:22:59;9.40;97.90
39023;DHT22;25908;51.984;5.928;2023-01-30T14:33:10;9.50;98.00
39023;DHT22;25908;51.984;5.928;2023-01-30T14:38:32;9.50;98.10
39023;DHT22;25908;51.984;5.928;2023-01-30T15:04:41;9.40;98.60
39023;DHT22;25908;51.984;5.928;2023-01-30T15:07:21;9.40;98.80
39023;DHT22;25908;51.984;5.928;2023-01-30T15:10:04;9.40;99.20
39023;DHT22;25908;51.984;5.928;2023-01-30T15:15:31;9.40;99.10
39023;DHT22;25908;51.984;5.928;2023-01-30T15:32:25;9.40;99.50
39023;DHT22;25908;51.984;5.928;2023-01-30T15:35:00;9.40;99.40
39023;DHT22;25908;51.984;5.928;2023-01-30T15:37:38;9.40;99.30
39023;DHT22;25908;51.984;5.928;2023-01-30T15:42:49;9.40;99.40
39023;DHT22;25908;51.984;5.928;2023-01-30T15:45:37;9.30;99.50
39023;DHT22;25908;51.984;5.928;2023-01-30T15:50:59;9.30;99.90
39023;DHT22;25908;51.984;5.928;2023-01-30T15:53:35;9.30;99.50
39023;DHT22;25908;51.984;5.928;2023-01-30T15:56:05;9.30;99.50
39023;DHT22;25908;51.984;5.928;2023-01-30T15:58:34;9.30;99.60
39023;DHT22;25908;51.984;5.928;2023-01-30T16:01:01;9.30;99.40
39023;DHT22;25908;51.984;5.928;2023-01-30T16:03:32;9.20;99.50
39023;DHT22;25908;51.984;5.928;2023-01-30T16:06:01;9.20;99.70
39023;DHT22;25908;51.984;5.928;2023-01-30T16:08:32;9.20;99.90
39023;DHT22;25908;51.984;5.928;2023-01-30T16:10:58;9.20;99.90
39023;DHT22;25908;51.984;5.928;2023-01-30T16:13:25;9.20;99.80
39023;DHT22;25908;51.984;5.928;2023-01-30T16:15:57;9.20;99.70
39023;DHT22;25908;51.984;5.928;2023-01-30T16:18:31;9.20;99.90
39023;DHT22;25908;51.984;5.928;2023-01-30T16:20:59;9.10;99.90
39023;DHT22;25908;51.984;5.928;2023-01-30T16:23:41;9.20;99.90
39023;DHT22;25908;51.984;5.928;2023-01-30T16:26:13;9.10;99.90
39023;DHT22;25908;51.984;5.928;2023-01-30T16:28:42;9.10;99.90
39023;DHT22;25908;51.984;5.928;2023-01-30T16:31:09;9.20;99.90
39023;DHT22;25908;51.984;5.928;2023-01-30T16:33:35;9.20;99.90
39023;DHT22;25908;51.984;5.928;2023-01-30T16:38:48;9.10;99.80
39023;DHT22;25908;51.984;5.928;2023-01-30T16:41:36;9.10;99.90
39023;DHT22;25908;51.984;5.928;2023-01-30T16:54:38;8.90;99.90
39023;DHT22;25908;51.984;5.928;2023-01-30T16:57:06;8.80;99.90
39023;DHT22;25908;51.984;5.928;2023-01-30T16:59:33;8.80;99.90
39023;DHT22;25908;51.984;5.928;2023-01-30T17:02:04;8.80;99.90
39023;DHT22;25908;51.984;5.928;2023-01-30T17:04:32;8.80;99.90
39023;DHT22;25908;51.984;5.928;2023-01-30T17:07:00;8.80;99.90
39023;DHT22;25908;51.984;5.928;2023-01-30T17:09:46;8.70;99.90
39023;DHT22;25908;51.984;5.928;2023-01-30T17:17:38;8.60;99.90
39023;DHT22;25908;51.984;5.928;2023-01-30T17:20:04;8.50;99.90
39023;DHT22;25908;51.984;5.928;2023-01-30T17:22:30;8.50;99.90
39023;DHT22;25908;51.984;5.928;2023-01-30T17:25:01;8.40;99.90
39023;DHT22;25908;51.984;5.928;2023-01-30T17:27:28;8.50;99.90
39023;DHT22;25908;51.984;5.928;2023-01-30T17:29:55;8.40;99.90
39023;DHT22;25908;51.984;5.928;2023-01-30T17:32:21;8.50;99.90
39023;DHT22;25908;51.984;5.928;2023-01-30T17:34:46;8.50;99.90
39023;DHT22;25908;51.984;5.928;2023-01-30T17:37:20;8.40;99.90
39023;DHT22;25908;51.984;5.928;2023-01-30T17:39:46;8.50;99.90
39023;DHT22;25908;51.984;5.928;2023-01-30T17:42:13;8.40;99.90
39023;DHT22;25908;51.984;5.928;2023-01-30T17:44:39;8.40;99.90
39023;DHT22;25908;51.984;5.928;2023-01-30T17:47:07;8.40;99.90
39023;DHT22;25908;51.984;5.928;2023-01-30T17:49:33;8.40;99.90
39023;DHT22;25908;51.984;5.928;2023-01-30T17:51:59;8.30;99.90
39023;DHT22;25908;51.984;5.928;2023-01-30T17:54:25;8.30;99.90
39023;DHT22;25908;51.984;5.928;2023-01-30T17:56:54;8.30;99.90
39023;DHT22;25908;51.984;5.928;2023-01-30T17:59:20;8.30;99.90
39023;DHT22;25908;51.984;5.928;2023-01-30T18:01:48;8.30;99.90
39023;DHT22;25908;51.984;5.928;2023-01-30T18:04:15;8.20;99.90
39023;DHT22;25908;51.984;5.928;2023-01-30T18:06:42;8.20;99.90
39023;DHT22;25908;51.984;5.928;2023-01-30T18:09:14;8.20;99.90
39023;DHT22;25908;51.984;5.928;2023-01-30T18:11:40;8.10;99.90
39023;DHT22;25908;51.984;5.928;2023-01-30T18:14:05;8.10;99.90
39023;DHT22;25908;51.984;5.928;2023-01-30T18:16:31;8.10;99.90
39023;DHT22;25908;51.984;5.928;2023-01-30T18:18:58;8.00;99.90
39023;DHT22;25908;51.984;5.928;2023-01-30T18:21:24;8.00;99.90
39023;DHT22;25908;51.984;5.928;2023-01-30T18:23:50;8.00;99.90
39023;DHT22;25908;51.984;5.928;2023-01-30T18:26:17;8.00;99.90
39023;DHT22;25908;51.984;5.928;2023-01-30T18:28:43;8.00;99.90
39023;DHT22;25908;51.984;5.928;2023-01-30T18:31:12;8.00;99.90
39023;DHT22;25908;51.984;5.928;2023-01-30T18:33:38;8.00;99.90
39023;DHT22;25908;51.984;5.928;2023-01-30T18:36:08;7.90;99.90
39023;DHT22;25908;51.984;5.928;2023-01-30T18:38:34;7.90;99.90
39023;DHT22;25908;51.984;5.928;2023-01-30T18:41:14;7.80;99.90
39023;DHT22;25908;51.984;5.928;2023-01-30T18:43:40;7.80;99.90
39023;DHT22;25908;51.984;5.928;2023-01-30T18:46:09;7.80;99.90
39023;DHT22;25908;51.984;5.928;2023-01-30T18:48:35;7.70;99.90
39023;DHT22;25908;51.984;5.928;2023-01-30T18:51:05;7.70;99.90
39023;DHT22;25908;51.984;5.928;2023-01-30T18:53:31;7.70;99.90
39023;DHT22;25908;51.984;5.928;2023-01-30T18:55:57;7.70;99.90
39023;DHT22;25908;51.984;5.928;2023-01-30T18:58:23;7.70;99.90
39023;DHT22;25908;51.984;5.928;2023-01-30T19:00:48;7.70;99.90
39023;DHT22;25908;51.984;5.928;2023-01-30T19:03:15;7.70;99.90